Terminal Aerodrome Forecast
Issued by NWS Cleveland, OH

Home | Current Version | Previous Version | Text Only | Print | Product List | Glossary Off
Versions: 1 2 3 4 5 6 7 8 9 10 11 12 13 14 15 16 17 18

000
FTUS41 KCLE 241000 AAA
TAFERI
TAF AMD
KERI 241001Z 2410/2506 10006KT P6SM SCT020
      TEMPO 2410/2414 BKN020
     FM241700 05008KT P6SM FEW035
     FM250200 10006KT P6SM SCT250=

USA.gov is the U.S. government's official web portal to all federal, state and local government web resources and services.